createdAt,value
2023-05-19T00:01:13.829Z,5.80
2023-05-19T00:03:52.833Z,6.00
2023-05-19T00:06:27.028Z,5.90
2023-05-19T00:08:59.029Z,5.80
2023-05-19T00:11:29.323Z,5.90
2023-05-19T00:13:57.391Z,6.00
2023-05-19T00:16:25.418Z,5.60
2023-05-19T00:18:53.616Z,6.10
2023-05-19T00:21:21.168Z,6.40
2023-05-19T00:23:48.454Z,6.20
2023-05-19T00:26:15.430Z,6.00
2023-05-19T00:28:46.501Z,5.80
2023-05-19T00:31:13.522Z,6.40
2023-05-19T00:33:40.648Z,6.10
2023-05-19T00:36:08.596Z,6.80
2023-05-19T00:38:37.080Z,6.10
2023-05-19T00:41:05.119Z,7.30
2023-05-19T00:43:32.258Z,5.20
2023-05-19T00:45:59.305Z,7.50
2023-05-19T00:48:26.501Z,7.90
2023-05-19T00:50:55.182Z,6.90
2023-05-19T00:53:23.663Z,7.50
2023-05-19T00:55:50.820Z,7.90
2023-05-19T00:58:18.747Z,6.20
2023-05-19T01:00:45.984Z,7.30
2023-05-19T01:03:13.295Z,6.70
2023-05-19T01:05:47.950Z,7.90
2023-05-19T01:08:15.103Z,7.60
2023-05-19T01:10:42.209Z,6.50
2023-05-19T01:13:09.905Z,6.10
2023-05-19T01:15:45.883Z,6.20
2023-05-19T01:18:14.661Z,6.60
2023-05-19T01:20:47.408Z,6.20
2023-05-19T01:23:15.485Z,6.40
2023-05-19T01:26:01.345Z,6.90
2023-05-19T01:28:47.366Z,6.00
2023-05-19T01:31:15.465Z,6.10
2023-05-19T01:33:43.969Z,7.10
2023-05-19T01:36:12.478Z,5.80
2023-05-19T01:38:40.348Z,6.50
2023-05-19T01:41:08.510Z,6.30
2023-05-19T01:43:36.257Z,6.00
2023-05-19T01:46:03.441Z,6.10
2023-05-19T01:48:31.031Z,5.80
2023-05-19T01:50:58.870Z,5.00
2023-05-19T01:53:26.000Z,5.30
2023-05-19T01:55:55.578Z,5.30
2023-05-19T01:58:29.856Z,5.60
2023-05-19T02:01:15.882Z,5.60
2023-05-19T02:03:46.058Z,5.80
2023-05-19T02:06:31.528Z,6.20
2023-05-19T02:09:03.105Z,6.60
2023-05-19T02:11:31.564Z,5.90
2023-05-19T02:14:03.102Z,5.90
2023-05-19T02:16:30.616Z,6.20
2023-05-19T02:18:59.716Z,6.20
2023-05-19T02:21:26.891Z,5.20
2023-05-19T02:23:55.232Z,4.70
2023-05-19T02:26:23.052Z,5.90
2023-05-19T02:28:50.045Z,4.90
2023-05-19T02:31:18.204Z,4.70
2023-05-19T02:33:45.212Z,5.10
2023-05-19T02:36:14.776Z,6.00
2023-05-19T02:38:41.950Z,5.90
2023-05-19T02:41:09.061Z,5.60
2023-05-19T02:43:36.523Z,6.00
2023-05-19T02:46:03.624Z,7.20
2023-05-19T02:48:30.645Z,5.30
2023-05-19T02:50:57.660Z,4.50
2023-05-19T02:53:24.722Z,5.40
2023-05-19T02:55:51.805Z,4.80
2023-05-19T02:58:18.995Z,5.10
2023-05-19T03:00:46.116Z,5.60
2023-05-19T03:03:14.153Z,5.70
2023-05-19T03:05:41.553Z,5.40
2023-05-19T03:08:08.591Z,5.10
2023-05-19T03:10:35.984Z,5.30
2023-05-19T03:13:03.093Z,5.40
2023-05-19T03:15:30.960Z,5.00
2023-05-19T03:17:58.106Z,4.50
2023-05-19T03:20:25.333Z,5.20
2023-05-19T03:22:52.722Z,4.20
2023-05-19T03:25:19.753Z,4.80
2023-05-19T03:27:46.830Z,4.70
2023-05-19T03:30:14.138Z,5.50
2023-05-19T03:33:03.201Z,4.90
2023-05-19T03:35:30.298Z,4.50
2023-05-19T03:37:57.315Z,3.90
2023-05-19T03:40:24.355Z,5.60
2023-05-19T03:42:51.893Z,5.40
2023-05-19T03:45:19.006Z,4.90
2023-05-19T03:47:47.856Z,6.50
2023-05-19T03:50:35.183Z,4.70
2023-05-19T03:53:12.984Z,5.00
2023-05-19T03:55:41.324Z,5.00
2023-05-19T03:58:08.322Z,5.00
2023-05-19T04:00:36.670Z,4.50
2023-05-19T04:03:03.750Z,5.90
2023-05-19T04:05:30.953Z,4.00
2023-05-19T04:07:57.977Z,4.90
2023-05-19T04:10:24.954Z,4.30
2023-05-19T04:12:54.714Z,4.40
2023-05-19T04:15:21.943Z,5.20
2023-05-19T04:17:48.932Z,5.60
2023-05-19T04:20:15.893Z,5.00
2023-05-19T04:22:42.961Z,4.70
2023-05-19T04:25:10.157Z,4.80
2023-05-19T04:27:39.308Z,4.90
2023-05-19T04:30:07.097Z,4.90
2023-05-19T04:32:34.671Z,4.70
2023-05-19T04:35:03.420Z,4.10
2023-05-19T04:37:30.456Z,5.00
2023-05-19T04:39:57.739Z,5.60
2023-05-19T04:42:26.438Z,4.80
2023-05-19T04:44:53.957Z,6.20
2023-05-19T04:47:21.824Z,5.80
2023-05-19T04:49:48.968Z,5.30
2023-05-19T04:52:16.294Z,5.00
2023-05-19T04:54:43.307Z,5.10
2023-05-19T04:57:12.204Z,5.00
2023-05-19T04:59:39.720Z,5.50
2023-05-19T05:02:08.010Z,5.60
2023-05-19T05:04:36.428Z,5.40
2023-05-19T05:07:03.457Z,4.90
2023-05-19T05:09:30.570Z,5.30
2023-05-19T05:11:58.697Z,5.30
2023-05-19T05:14:25.901Z,4.30
2023-05-19T05:16:53.497Z,5.00
2023-05-19T05:19:23.286Z,5.60
2023-05-19T05:21:50.966Z,5.60
2023-05-19T05:24:19.691Z,5.40
2023-05-19T05:26:50.648Z,5.10
2023-05-19T05:29:17.716Z,6.50
2023-05-19T05:31:44.661Z,5.80
2023-05-19T05:34:11.683Z,4.80
2023-05-19T05:36:38.629Z,5.20
2023-05-19T05:39:06.322Z,4.50
2023-05-19T05:41:35.663Z,5.30
2023-05-19T05:44:07.805Z,5.00
2023-05-19T05:46:35.204Z,5.30
2023-05-19T05:49:03.516Z,5.50
2023-05-19T05:51:33.290Z,4.50
2023-05-19T05:54:02.195Z,4.40
2023-05-19T05:56:37.581Z,5.20
2023-05-19T05:59:06.184Z,4.40
2023-05-19T06:01:35.515Z,5.00
2023-05-19T06:04:03.739Z,4.00
2023-05-19T06:06:31.558Z,4.40
2023-05-19T06:08:59.401Z,4.10
2023-05-19T06:11:29.090Z,4.30
2023-05-19T06:13:57.473Z,4.10
2023-05-19T06:16:56.821Z,3.70
2023-05-19T06:19:25.659Z,4.70
2023-05-19T06:21:52.995Z,4.10
2023-05-19T06:24:19.998Z,3.70
2023-05-19T06:26:47.523Z,4.10
2023-05-19T06:29:15.291Z,3.60
2023-05-19T06:31:42.468Z,3.40
2023-05-19T06:34:12.801Z,3.80
2023-05-19T06:36:41.641Z,3.70
2023-05-19T06:39:09.292Z,3.40
2023-05-19T06:41:36.467Z,4.10
2023-05-19T06:44:04.112Z,4.70
2023-05-19T06:46:33.244Z,4.00
2023-05-19T06:49:00.365Z,4.30
2023-05-19T06:51:28.758Z,4.30
2023-05-19T06:53:56.311Z,4.40
2023-05-19T06:56:23.726Z,4.60
2023-05-19T06:58:50.883Z,4.30
2023-05-19T07:01:18.216Z,4.70
2023-05-19T07:03:49.389Z,3.90
2023-05-19T07:06:16.493Z,4.20
2023-05-19T07:08:43.829Z,3.80
2023-05-19T07:11:12.733Z,5.00
2023-05-19T07:13:40.359Z,4.90
2023-05-19T07:16:07.676Z,5.00
2023-05-19T07:18:35.708Z,4.00
2023-05-19T07:21:02.725Z,4.30
2023-05-19T07:23:29.785Z,4.70
2023-05-19T07:25:57.089Z,7.00
2023-05-19T07:28:24.365Z,5.00
2023-05-19T07:30:52.162Z,5.00
2023-05-19T07:33:19.632Z,4.80
2023-05-19T07:35:46.778Z,4.40
2023-05-19T07:38:13.889Z,4.60
2023-05-19T07:40:41.210Z,4.10
2023-05-19T07:43:08.204Z,3.90
2023-05-19T07:45:35.216Z,3.70
2023-05-19T07:48:02.589Z,3.80
2023-05-19T07:50:29.621Z,3.90
2023-05-19T07:52:56.797Z,3.30
2023-05-19T07:55:23.959Z,4.20
2023-05-19T07:57:51.460Z,3.80
2023-05-19T08:00:18.577Z,3.10
2023-05-19T08:02:46.037Z,2.50
2023-05-19T08:05:13.255Z,2.80
2023-05-19T08:07:40.220Z,2.60
2023-05-19T08:10:07.763Z,2.90
2023-05-19T08:12:34.782Z,3.70
2023-05-19T08:15:02.051Z,3.10
2023-05-19T08:17:29.404Z,3.30
2023-05-19T08:19:57.122Z,4.30
2023-05-19T08:22:24.116Z,2.90
2023-05-19T08:24:52.113Z,3.90
2023-05-19T08:27:19.076Z,4.30
2023-05-19T08:29:46.221Z,4.20
2023-05-19T08:32:13.552Z,3.80
2023-05-19T08:34:41.414Z,4.30
2023-05-19T08:37:08.553Z,4.60
2023-05-19T08:39:35.667Z,4.00
2023-05-19T08:42:02.693Z,4.40
2023-05-19T08:44:31.232Z,3.80
2023-05-19T08:47:01.066Z,3.80
2023-05-19T08:49:28.714Z,3.30
2023-05-19T08:52:14.645Z,3.50
2023-05-19T08:54:53.406Z,3.40
2023-05-19T08:57:21.571Z,3.90
2023-05-19T08:59:49.816Z,3.90
2023-05-19T09:02:16.952Z,3.80
2023-05-19T09:04:46.369Z,3.90
2023-05-19T09:07:14.541Z,4.80
2023-05-19T09:09:44.128Z,5.00
2023-05-19T09:12:11.896Z,4.30
2023-05-19T09:14:39.296Z,3.90
2023-05-19T09:17:07.294Z,3.70
2023-05-19T09:19:34.533Z,3.90
2023-05-19T09:22:03.871Z,3.60
2023-05-19T09:24:32.074Z,4.00
2023-05-19T09:27:00.341Z,3.30
2023-05-19T09:29:27.736Z,3.10
2023-05-19T09:31:56.467Z,3.10
2023-05-19T09:34:25.264Z,3.30
2023-05-19T09:36:53.911Z,3.70
2023-05-19T09:39:22.259Z,3.40
2023-05-19T09:41:56.557Z,2.80
2023-05-19T09:44:24.428Z,2.60
2023-05-19T09:46:52.010Z,2.70
2023-05-19T09:49:20.158Z,2.60
2023-05-19T09:51:49.181Z,2.70
2023-05-19T09:54:18.946Z,3.10
2023-05-19T09:56:45.968Z,2.50
2023-05-19T09:59:14.616Z,2.80
2023-05-19T10:01:44.252Z,2.60
2023-05-19T10:04:11.828Z,3.80
2023-05-19T10:06:38.958Z,3.40
2023-05-19T10:09:06.452Z,2.30
2023-05-19T10:11:33.951Z,2.60
2023-05-19T10:14:01.081Z,3.10
2023-05-19T10:16:29.007Z,2.70
2023-05-19T10:18:58.431Z,2.70
2023-05-19T10:21:25.451Z,2.30
2023-05-19T10:23:52.476Z,2.90
2023-05-19T10:26:20.048Z,3.10
2023-05-19T10:28:48.332Z,3.20
2023-05-19T10:31:18.518Z,3.00
2023-05-19T10:33:59.758Z,2.80
2023-05-19T10:36:32.895Z,2.90
2023-05-19T10:39:23.289Z,3.30
2023-05-19T10:41:50.242Z,3.00
2023-05-19T10:44:32.642Z,2.50
2023-05-19T10:46:59.727Z,2.80
2023-05-19T10:49:26.746Z,2.40
2023-05-19T10:51:57.190Z,3.30
2023-05-19T10:54:41.320Z,2.90
2023-05-19T10:57:08.689Z,3.00
2023-05-19T10:59:40.105Z,3.10
2023-05-19T11:02:08.823Z,3.10
2023-05-19T11:04:39.954Z,2.70
2023-05-19T11:07:09.747Z,2.30
2023-05-19T11:09:43.176Z,2.80
2023-05-19T11:12:11.296Z,3.90
2023-05-19T11:14:39.517Z,2.90
2023-05-19T11:17:13.717Z,2.70
2023-05-19T11:19:51.581Z,2.80
2023-05-19T11:22:18.639Z,2.80
2023-05-19T11:24:48.197Z,2.90
2023-05-19T11:27:23.246Z,3.00
2023-05-19T11:29:51.489Z,3.00
2023-05-19T11:32:18.789Z,3.30
2023-05-19T11:34:46.420Z,3.00
2023-05-19T11:37:13.562Z,2.30
2023-05-19T11:39:41.098Z,4.20
2023-05-19T11:42:11.930Z,3.50
2023-05-19T11:44:39.092Z,3.30
2023-05-19T11:47:06.606Z,3.00
2023-05-19T11:49:34.010Z,3.30
2023-05-19T11:52:04.503Z,3.30
2023-05-19T11:54:39.692Z,3.20
2023-05-19T11:57:08.472Z,3.30
2023-05-19T11:59:36.478Z,3.60
2023-05-19T12:02:17.050Z,3.30
2023-05-19T12:04:44.063Z,3.90
2023-05-19T12:07:12.680Z,3.20
2023-05-19T12:09:40.520Z,3.90
2023-05-19T12:12:07.925Z,3.50
2023-05-19T12:14:36.236Z,3.70
2023-05-19T12:17:20.119Z,3.50
2023-05-19T12:19:48.194Z,3.20
2023-05-19T12:22:15.503Z,3.80
2023-05-19T12:24:43.336Z,3.30
2023-05-19T12:27:13.950Z,3.60
2023-05-19T12:29:41.539Z,3.50
2023-05-19T12:32:09.784Z,3.50
2023-05-19T12:34:37.986Z,3.60
2023-05-19T12:37:05.494Z,3.50
2023-05-19T12:39:32.997Z,3.60
2023-05-19T12:42:03.974Z,3.10
2023-05-19T12:44:31.949Z,3.50
2023-05-19T12:47:00.000Z,3.00
2023-05-19T12:49:26.990Z,3.10
2023-05-19T12:51:54.139Z,3.10
2023-05-19T12:54:22.446Z,3.20
2023-05-19T12:56:51.513Z,3.60
2023-05-19T12:59:30.928Z,3.40
2023-05-19T13:02:05.416Z,3.00
2023-05-19T13:04:32.740Z,3.70
2023-05-19T13:06:59.753Z,3.40
2023-05-19T13:09:28.034Z,4.00
2023-05-19T13:11:55.052Z,3.80
2023-05-19T13:14:22.067Z,3.90
2023-05-19T13:16:49.128Z,3.40
2023-05-19T13:21:51.458Z,3.60
2023-05-19T13:24:18.483Z,3.60
2023-05-19T13:26:45.566Z,3.50
2023-05-19T13:29:12.542Z,3.60
2023-05-19T13:31:39.529Z,3.10
2023-05-19T13:34:07.190Z,3.80
2023-05-19T13:36:35.127Z,3.70
2023-05-19T13:39:02.179Z,3.50
2023-05-19T13:41:29.906Z,3.70
2023-05-19T13:43:59.901Z,3.30
2023-05-19T13:46:40.909Z,3.70
2023-05-19T13:49:12.167Z,3.30
2023-05-19T13:51:39.872Z,4.20
2023-05-19T13:54:06.875Z,4.20
2023-05-19T13:56:34.013Z,3.80
2023-05-19T13:59:01.011Z,4.20
2023-05-19T14:01:27.982Z,3.70
2023-05-19T14:03:55.129Z,4.90
2023-05-19T14:06:22.371Z,3.90
2023-05-19T14:08:49.375Z,4.20
2023-05-19T14:11:22.863Z,4.00
2023-05-19T14:13:52.695Z,3.90
2023-05-19T14:16:23.352Z,3.90
2023-05-19T14:18:50.836Z,4.00
2023-05-19T14:21:17.942Z,4.80
2023-05-19T14:23:44.958Z,4.70
2023-05-19T14:26:12.008Z,4.60
2023-05-19T14:28:39.170Z,4.30
2023-05-19T14:31:09.055Z,4.10
2023-05-19T14:33:36.049Z,6.30
2023-05-19T14:36:03.349Z,4.90
2023-05-19T14:38:30.351Z,5.00
2023-05-19T14:40:57.523Z,5.50
2023-05-19T14:43:24.527Z,7.10
2023-05-19T14:45:51.558Z,10.80
2023-05-19T14:48:18.601Z,10.30
2023-05-19T14:50:48.567Z,7.20
2023-05-19T14:53:16.458Z,6.40
2023-05-19T14:55:44.639Z,5.20
2023-05-19T14:58:27.745Z,5.50
2023-05-19T15:00:58.013Z,5.10
2023-05-19T15:03:25.406Z,5.20
2023-05-19T15:05:52.702Z,4.70
2023-05-19T15:08:19.726Z,5.50
2023-05-19T15:10:50.100Z,5.80
2023-05-19T15:13:19.116Z,5.50
2023-05-19T15:15:46.324Z,5.00
2023-05-19T15:18:16.344Z,5.10
2023-05-19T15:20:43.866Z,5.30
2023-05-19T15:23:11.206Z,4.70
2023-05-19T15:25:38.279Z,4.20
2023-05-19T15:28:05.290Z,5.30
2023-05-19T15:30:32.661Z,5.30
2023-05-19T15:32:59.903Z,4.00
2023-05-19T15:35:26.977Z,4.30
2023-05-19T15:37:54.446Z,4.90
2023-05-19T15:40:21.458Z,4.70
2023-05-19T15:42:48.526Z,4.90
2023-05-19T15:45:15.743Z,4.10
2023-05-19T15:47:42.754Z,4.50
2023-05-19T15:50:09.925Z,4.70
2023-05-19T15:52:36.896Z,5.30
2023-05-19T15:55:04.064Z,5.30
2023-05-19T15:57:31.049Z,5.10
2023-05-19T15:59:58.063Z,5.30
2023-05-19T16:02:25.185Z,5.80
2023-05-19T16:04:52.344Z,5.50
2023-05-19T16:07:19.388Z,5.40
2023-05-19T16:09:46.437Z,3.90
2023-05-19T16:12:13.401Z,4.30
2023-05-19T16:14:40.498Z,5.30
2023-05-19T16:17:11.653Z,4.90
2023-05-19T16:19:38.724Z,4.70
2023-05-19T16:22:05.857Z,4.10
2023-05-19T16:24:32.788Z,3.50
2023-05-19T16:26:59.877Z,4.60
2023-05-19T16:29:26.921Z,4.50
2023-05-19T16:31:54.002Z,4.50
2023-05-19T16:34:20.978Z,4.40
2023-05-19T16:36:48.062Z,4.80
2023-05-19T16:39:15.481Z,4.60
2023-05-19T16:41:42.406Z,4.70
2023-05-19T16:44:09.374Z,3.90
2023-05-19T16:46:36.614Z,3.90
2023-05-19T16:49:03.676Z,4.40
2023-05-19T16:51:31.409Z,4.00
2023-05-19T16:53:58.360Z,3.50
2023-05-19T16:56:25.374Z,3.80
2023-05-19T16:58:54.812Z,3.60
2023-05-19T17:01:21.868Z,3.60
2023-05-19T17:03:48.966Z,3.70
2023-05-19T17:06:16.543Z,3.50
2023-05-19T17:08:43.540Z,3.80
2023-05-19T17:11:10.719Z,3.00
2023-05-19T17:13:37.774Z,3.00
2023-05-19T17:16:05.049Z,3.00
2023-05-19T17:18:32.079Z,3.50
2023-05-19T17:21:03.962Z,3.10
2023-05-19T17:23:32.191Z,3.40
2023-05-19T17:25:59.277Z,3.60
2023-05-19T17:28:26.416Z,3.80
2023-05-19T17:30:53.482Z,3.80
2023-05-19T17:33:21.208Z,4.50
2023-05-19T17:35:48.298Z,4.30
2023-05-19T17:38:15.324Z,4.30
2023-05-19T17:40:42.415Z,4.50
2023-05-19T17:43:09.427Z,4.40
2023-05-19T17:45:36.458Z,5.70
2023-05-19T17:48:03.649Z,5.80
2023-05-19T17:50:30.818Z,5.70
2023-05-19T17:52:58.103Z,5.40
2023-05-19T17:55:30.165Z,5.70
2023-05-19T17:57:57.791Z,6.20
2023-05-19T18:00:25.377Z,5.90
2023-05-19T18:02:53.040Z,5.70
2023-05-19T18:05:20.664Z,6.30
2023-05-19T18:07:48.394Z,5.50
2023-05-19T18:10:17.148Z,5.30
2023-05-19T18:12:44.164Z,5.30
2023-05-19T18:15:11.918Z,4.50
2023-05-19T18:17:38.943Z,4.70
2023-05-19T18:20:09.636Z,4.80
2023-05-19T18:22:36.675Z,5.00
2023-05-19T18:25:03.731Z,5.40
2023-05-19T18:27:31.639Z,4.40
2023-05-19T18:29:58.659Z,5.50
2023-05-19T18:32:25.677Z,5.30
2023-05-19T18:34:52.829Z,4.80
2023-05-19T18:37:19.871Z,5.40
2023-05-19T18:39:47.204Z,6.10
2023-05-19T18:42:14.220Z,4.80
2023-05-19T18:44:41.210Z,6.00
2023-05-19T18:47:08.297Z,6.90
2023-05-19T18:49:35.330Z,5.90
2023-05-19T18:52:02.291Z,6.00
2023-05-19T18:54:29.504Z,5.20
2023-05-19T18:56:56.573Z,5.10
2023-05-19T18:59:24.830Z,5.20
2023-05-19T19:01:55.377Z,5.20
2023-05-19T19:04:22.700Z,4.90
2023-05-19T19:06:49.941Z,6.00
2023-05-19T19:09:17.331Z,5.20
2023-05-19T19:11:44.472Z,6.60
2023-05-19T19:14:11.493Z,5.80
2023-05-19T19:16:38.658Z,6.10
2023-05-19T19:19:05.890Z,5.70
2023-05-19T19:21:33.106Z,5.70
2023-05-19T19:24:02.274Z,5.70
2023-05-19T19:26:29.288Z,5.20
2023-05-19T19:28:56.789Z,5.50
2023-05-19T19:31:26.124Z,5.80
2023-05-19T19:33:53.197Z,6.00
2023-05-19T19:36:20.131Z,6.10
2023-05-19T19:38:47.234Z,5.30
2023-05-19T19:41:14.446Z,4.90
2023-05-19T19:43:41.435Z,5.10
2023-05-19T19:46:09.461Z,5.50
2023-05-19T19:48:36.652Z,4.80
2023-05-19T19:51:03.640Z,4.80
2023-05-19T19:53:30.628Z,5.20
2023-05-19T19:55:58.046Z,5.30
2023-05-19T19:58:25.218Z,5.40
2023-05-19T20:00:59.572Z,6.20
2023-05-19T20:03:27.215Z,6.00
2023-05-19T20:05:55.993Z,5.90
2023-05-19T20:08:23.775Z,6.40
2023-05-19T20:10:52.235Z,5.90
2023-05-19T20:13:19.284Z,5.30
2023-05-19T20:15:46.892Z,5.80
2023-05-19T20:18:14.062Z,5.00
2023-05-19T20:20:41.729Z,4.60
2023-05-19T20:23:09.028Z,5.00
2023-05-19T20:25:57.822Z,5.10
2023-05-19T20:28:30.056Z,5.50
2023-05-19T20:30:57.053Z,5.00
2023-05-19T20:33:24.073Z,5.10
2023-05-19T20:35:51.116Z,5.10
2023-05-19T20:38:18.133Z,5.40
2023-05-19T20:40:45.088Z,5.20
2023-05-19T20:43:12.457Z,4.80
2023-05-19T20:45:39.443Z,4.90
2023-05-19T20:48:06.559Z,5.30
2023-05-19T20:50:33.859Z,5.40
2023-05-19T20:53:01.272Z,4.70
2023-05-19T20:55:28.400Z,5.50
2023-05-19T20:57:55.772Z,4.80
2023-05-19T21:00:23.405Z,5.40
2023-05-19T21:02:50.648Z,4.50
2023-05-19T21:05:17.655Z,4.80
2023-05-19T21:07:44.717Z,4.30
2023-05-19T21:10:14.030Z,4.90
2023-05-19T21:12:41.098Z,5.00
2023-05-19T21:15:08.772Z,4.60
2023-05-19T21:17:36.009Z,4.70
2023-05-19T21:20:03.933Z,4.80
2023-05-19T21:22:30.965Z,4.60
2023-05-19T21:24:57.984Z,4.60
2023-05-19T21:27:25.028Z,4.70
2023-05-19T21:29:53.517Z,4.60
2023-05-19T21:32:21.049Z,4.70
2023-05-19T21:34:48.119Z,3.90
2023-05-19T21:37:17.362Z,4.20
2023-05-19T21:39:44.716Z,4.20
2023-05-19T21:42:11.787Z,4.50
2023-05-19T21:44:39.008Z,4.70
2023-05-19T21:47:06.937Z,3.90
2023-05-19T21:49:34.014Z,4.10
2023-05-19T21:52:01.012Z,4.10
2023-05-19T21:54:28.025Z,4.20
2023-05-19T21:56:54.997Z,3.80
2023-05-19T21:59:24.879Z,4.70
2023-05-19T22:01:52.378Z,4.40
2023-05-19T22:04:20.669Z,4.50
2023-05-19T22:06:48.024Z,4.40
2023-05-19T22:09:15.067Z,4.60
2023-05-19T22:11:42.064Z,4.40
2023-05-19T22:14:09.046Z,4.30
2023-05-19T22:16:36.073Z,5.00
2023-05-19T22:19:03.221Z,4.10
2023-05-19T22:21:30.233Z,4.60
2023-05-19T22:23:57.194Z,5.50
2023-05-19T22:26:24.281Z,4.40
2023-05-19T22:28:51.310Z,5.00
2023-05-19T22:31:18.268Z,4.90
2023-05-19T22:33:45.518Z,4.90
2023-05-19T22:36:13.599Z,5.00
2023-05-19T22:38:41.080Z,4.90
2023-05-19T22:41:08.099Z,4.90
2023-05-19T22:43:35.069Z,5.20
2023-05-19T22:46:02.118Z,4.70
2023-05-19T22:48:29.132Z,4.50
2023-05-19T22:50:56.331Z,5.70
2023-05-19T22:53:23.342Z,5.30
2023-05-19T22:55:50.347Z,5.50
2023-05-19T22:58:17.364Z,5.40
2023-05-19T23:00:44.357Z,4.90
2023-05-19T23:03:11.818Z,5.30
2023-05-19T23:05:40.170Z,5.00
2023-05-19T23:08:07.204Z,5.60
2023-05-19T23:10:34.278Z,5.80
2023-05-19T23:13:01.218Z,6.30
2023-05-19T23:15:28.193Z,6.50
2023-05-19T23:17:55.366Z,6.60
2023-05-19T23:20:22.457Z,6.70
2023-05-19T23:22:49.535Z,6.60
2023-05-19T23:25:16.614Z,7.10
2023-05-19T23:27:43.619Z,7.70
2023-05-19T23:30:30.732Z,8.50
2023-05-19T23:32:57.727Z,7.30
2023-05-19T23:35:24.613Z,9.30
2023-05-19T23:37:53.053Z,9.10
2023-05-19T23:40:19.936Z,8.10
2023-05-19T23:42:46.876Z,7.00
2023-05-19T23:45:13.776Z,6.70
2023-05-19T23:47:40.666Z,8.40
2023-05-19T23:50:07.703Z,8.60
2023-05-19T23:52:34.734Z,8.30
2023-05-19T23:55:03.437Z,9.30
2023-05-19T23:57:30.379Z,8.90
2023-05-19T23:59:57.333Z,9.60
